Time;durP1;ratioP1;P1;durP2;ratioP2;P2;SDS_P1;SDS_P2;PMS_P1;PMS_P2;Temp;Humidity;BMP_temperature;BMP_pressure;BME280_temperature;BME280_humidity;BME280_pressure;Samples;Min_cycle;Max_cycle;Signal;HPM_P1;HPM_P2
2022/10/23 00:00:46;;;;;;;25.98;16.95;;;;;;;12.03;61.69;100055.63;5070431;28;20066;-36
2022/10/23 00:03:12;;;;;;;26.70;16.70;;;;;;;12.63;60.08;100051.03;5070567;28;20028;-36
2022/10/23 00:05:40;;;;;;;29.65;17.20;;;;;;;12.43;60.42;100056.44;5070416;28;20050;-36
2022/10/23 00:08:06;;;;;;;25.33;18.00;;;;;;;11.92;62.22;100043.75;5070307;28;20082;-36
2022/10/23 00:10:32;;;;;;;23.60;16.70;;;;;;;12.07;61.12;100044.34;5070343;28;20099;-36
2022/10/23 00:12:58;;;;;;;23.27;15.77;;;;;;;12.46;59.95;100045.31;5070353;28;20107;-37
2022/10/23 00:15:26;;;;;;;25.70;15.95;;;;;;;12.30;60.52;100040.44;5070187;28;20024;-37
2022/10/23 00:17:52;;;;;;;24.85;16.73;;;;;;;12.04;61.45;100042.09;5069523;28;20032;-37
2022/10/23 00:20:17;;;;;;;23.58;15.10;;;;;;;11.93;61.27;100026.69;5070258;28;20097;-37
2022/10/23 00:22:43;;;;;;;26.45;16.25;;;;;;;12.49;60.08;100022.75;5069658;28;20051;-35
2022/10/23 00:25:09;;;;;;;28.80;17.60;;;;;;;12.45;59.87;100016.16;5070311;28;20016;-36
2022/10/23 00:27:35;;;;;;;31.17;17.92;;;;;;;11.77;61.97;100027.91;5070166;28;20421;-35
2022/10/23 00:30:02;;;;;;;30.02;17.88;;;;;;;12.02;61.56;100017.47;5070288;28;20024;-36
2022/10/23 00:32:28;;;;;;;31.40;17.55;;;;;;;12.56;59.98;100004.84;5070115;28;20028;-36
2022/10/23 00:34:53;;;;;;;26.50;16.38;;;;;;;12.32;60.73;100017.03;5070134;28;20031;-36
2022/10/23 00:37:19;;;;;;;22.35;15.52;;;;;;;12.17;61.01;100013.78;5069891;28;20048;-37
2022/10/23 00:39:44;;;;;;;25.45;17.25;;;;;;;11.99;62.57;100022.41;5070233;28;20430;-37
2022/10/23 00:42:15;;;;;;;23.92;15.77;;;;;;;12.34;61.11;100001.63;5069945;28;20105;-37
2022/10/23 00:44:41;;;;;;;24.75;16.77;;;;;;;12.10;61.44;100009.25;5070145;28;20039;-37
2022/10/23 00:47:06;;;;;;;27.50;16.08;;;;;;;11.84;62.86;100014.56;5069932;28;20017;-37
2022/10/23 00:49:32;;;;;;;29.65;15.98;;;;;;;11.39;63.75;100011.66;5070012;28;20082;-37
2022/10/23 00:52:03;;;;;;;22.65;15.15;;;;;;;12.07;62.22;100009.69;5070006;28;20659;-36
2022/10/23 00:54:33;;;;;;;24.77;15.93;;;;;;;11.92;62.35;100003.75;5069709;28;20052;-37
2022/10/23 00:57:03;;;;;;;26.05;16.08;;;;;;;11.58;62.78;100010.88;5069992;28;20020;-36
2022/10/23 00:59:29;;;;;;;;;;;;;;;11.74;62.46;100006.97;5070361;28;20024;-36
2022/10/23 01:01:55;;;;;;;23.15;15.38;;;;;;;11.92;62.04;100028.56;5069834;28;19909;-36
2022/10/23 01:04:21;;;;;;;26.23;15.23;;;;;;;11.89;62.19;100020.13;5069930;28;20016;-36
2022/10/23 01:07:12;;;;;;;26.00;15.30;;;;;;;11.58;63.54;100010.06;5069678;28;20021;-36
2022/10/23 01:09:38;;;;;;;26.25;15.50;;;;;;;11.60;63.34;100019.47;5069876;28;20040;-36
2022/10/23 01:12:21;;;;;;;23.27;14.52;;;;;;;12.35;60.90;100005.94;5069704;28;20421;-36
2022/10/23 01:15:22;;;;;;;24.80;14.70;;;;;;;12.09;60.77;100007.63;5069487;28;20025;-36
2022/10/23 01:17:59;;;;;;;23.90;14.70;;;;;;;12.09;61.21;100009.47;5069971;28;20109;-36
2022/10/23 01:20:29;;;;;;;22.80;14.50;;;;;;;12.08;61.27;100010.50;5070309;28;20024;-36
2022/10/23 01:23:16;;;;;;;21.92;14.02;;;;;;;12.47;59.92;100014.94;5070257;28;20102;-36
2022/10/23 01:26:03;;;;;;;21.10;14.10;;;;;;;12.06;61.54;100018.69;5070444;28;20346;-37
2022/10/23 01:28:38;;;;;;;22.13;14.18;;;;;;;11.89;62.06;100017.44;5072298;28;20488;-36
2022/10/23 01:31:10;;;;;;;24.83;13.38;;;;;;;11.74;62.16;100023.78;5074066;28;20036;-36
2022/10/23 01:33:46;;;;;;;22.17;13.80;;;;;;;12.52;60.06;100006.31;5073690;28;20024;-37
2022/10/23 01:36:14;;;;;;;22.48;13.50;;;;;;;12.48;60.49;99999.75;5073909;28;20107;-36
2022/10/23 01:39:05;;;;;;;23.95;12.88;;;;;;;12.06;61.09;100000.03;5073587;28;20028;-36
2022/10/23 01:41:43;;;;;;;20.15;13.15;;;;;;;11.94;61.34;100004.34;5073974;28;20396;-36
2022/10/23 01:44:27;;;;;;;20.00;13.38;;;;;;;12.60;59.90;99995.38;5073838;28;20024;-36
2022/10/23 01:46:54;;;;;;;19.38;13.15;;;;;;;12.23;60.76;99996.94;5073770;28;20024;-38
2022/10/23 01:49:21;;;;;;;18.23;12.80;;;;;;;12.28;60.59;100000.63;5073614;28;20024;-36
2022/10/23 01:51:52;;;;;;;19.13;13.02;;;;;;;11.99;62.21;100001.88;5073601;28;20035;-38
2022/10/23 01:54:21;;;;;;;21.30;13.05;;;;;;;12.26;61.42;100001.84;5073383;28;20024;-37
2022/10/23 01:56:50;;;;;;;20.38;13.57;;;;;;;12.24;60.89;99994.06;5073010;28;20021;-37
2022/10/23 01:59:23;;;;;;;20.75;12.00;;;;;;;12.06;61.22;99986.69;5073215;28;20028;-38
2022/10/23 02:01:52;;;;;;;19.65;12.80;;;;;;;11.96;62.66;99982.81;5073904;28;20040;-37
2022/10/23 02:04:24;;;;;;;19.48;12.70;;;;;;;11.85;62.48;99986.88;5073482;28;20016;-37
2022/10/23 02:06:49;;;;;;;19.30;12.45;;;;;;;12.45;60.87;99978.81;5073052;28;20025;-38
2022/10/23 02:09:15;;;;;;;17.60;12.93;;;;;;;12.28;61.14;99997.09;5073335;28;20456;-38
2022/10/23 02:11:53;;;;;;;19.30;12.07;;;;;;;12.03;62.29;99997.78;5073178;28;20527;-37
2022/10/23 02:15:00;;;;;;;17.67;12.30;;;;;;;11.85;62.41;99985.03;5073246;28;20020;-36
2022/10/23 02:17:31;;;;;;;19.77;12.55;;;;;;;12.59;60.00;99991.09;5050167;28;20139;-36
2022/10/23 02:20:07;;;;;;;21.35;12.48;;;;;;;12.37;60.44;99987.03;5072697;28;20021;-37
2022/10/23 02:22:39;;;;;;;19.75;12.70;;;;;;;12.32;60.91;100006.38;5072937;28;20055;-37
2022/10/23 02:25:08;;;;;;;18.20;12.90;;;;;;;12.06;61.33;100002.69;5073184;28;20480;-37
2022/10/23 02:27:55;;;;;;;26.00;12.85;;;;;;;12.28;60.83;99995.28;5072846;28;20047;-37
2022/10/23 02:30:21;;;;;;;19.60;12.68;;;;;;;12.19;60.80;100023.22;5072769;28;20071;-37
2022/10/23 02:32:50;;;;;;;19.23;13.15;;;;;;;12.18;61.18;100007.41;5072950;28;20044;-37
2022/10/23 02:35:17;;;;;;;22.25;13.23;;;;;;;11.96;61.80;100023.63;5072876;28;20421;-37
2022/10/23 02:37:50;;;;;;;18.00;12.38;;;;;;;12.03;61.84;100013.78;5072756;28;20020;-37
2022/10/23 02:40:16;;;;;;;24.52;13.80;;;;;;;12.59;59.57;100014.31;5071992;28;20032;-37
2022/10/23 02:42:51;;;;;;;20.67;13.05;;;;;;;12.30;60.90;100029.78;5072726;28;20051;-36
2022/10/23 02:45:35;;;;;;;21.52;13.27;;;;;;;12.18;60.77;100031.41;5072842;28;20024;-36
2022/10/23 02:48:17;;;;;;;20.75;12.43;;;;;;;12.07;61.09;100035.50;5072605;28;20025;-37
2022/10/23 02:50:49;;;;;;;21.15;12.98;;;;;;;12.28;61.53;100029.13;5072284;28;20032;-37
2022/10/23 02:53:34;;;;;;;19.77;13.02;;;;;;;12.23;60.98;100035.09;5072523;28;20025;-37
2022/10/23 02:56:17;;;;;;;20.23;12.30;;;;;;;12.18;61.19;100039.41;5072320;28;20029;-37
2022/10/23 02:58:45;;;;;;;16.77;11.88;;;;;;;12.18;61.50;100045.56;5072289;28;20184;-38
2022/10/23 03:01:18;;;;;;;19.58;12.32;;;;;;;12.44;60.85;100043.91;5072392;28;20060;-35
2022/10/23 03:03:51;;;;;;;18.63;12.07;;;;;;;12.88;59.67;100045.00;5072127;28;20051;-38
2022/10/23 03:06:17;;;;;;;16.65;11.45;;;;;;;12.82;58.77;100033.31;5071927;28;20021;-35
2022/10/23 03:08:48;;;;;;;18.85;12.20;;;;;;;12.37;61.02;100041.22;5072047;28;20373;-37
2022/10/23 03:11:13;;;;;;;23.58;12.95;;;;;;;12.25;61.66;100045.56;5072308;28;20028;-36
2022/10/23 03:13:39;;;;;;;19.63;11.88;;;;;;;12.89;58.83;100033.31;5071871;28;20035;-37
2022/10/23 03:16:04;;;;;;;17.02;11.20;;;;;;;12.62;59.29;100024.53;5071879;28;20034;-36
2022/10/23 03:18:30;;;;;;;16.52;11.13;;;;;;;12.40;59.73;100024.81;5071368;28;20021;-36
2022/10/23 03:20:55;;;;;;;17.23;10.95;;;;;;;12.27;60.93;100035.50;5072140;28;20027;-37
2022/10/23 03:23:21;;;;;;;18.00;10.93;;;;;;;12.78;59.34;100034.78;5071588;28;20048;-37
2022/10/23 03:25:46;;;;;;;16.13;10.30;;;;;;;12.78;59.04;100033.97;5072004;28;20460;-37
2022/10/23 03:28:12;;;;;;;20.25;10.75;;;;;;;12.41;59.94;100026.44;5071834;28;20025;-37
2022/10/23 03:30:37;;;;;;;17.58;9.77;;;;;;;12.57;59.02;100029.72;5071897;28;20031;-37
2022/10/23 03:33:03;;;;;;;16.73;9.48;;;;;;;13.16;57.77;100031.34;5071743;28;20073;-37
2022/10/23 03:35:28;;;;;;;18.20;11.52;;;;;;;13.59;56.38;100043.25;5071153;28;20029;-37
2022/10/23 03:37:54;;;;;;;17.75;11.73;;;;;;;12.91;58.79;100058.75;5071677;28;20111;-37
2022/10/23 03:40:19;;;;;;;15.48;11.05;;;;;;;12.58;59.29;100048.16;5071892;28;20024;-37
2022/10/23 03:42:45;;;;;;;19.17;11.95;;;;;;;12.47;59.94;100060.31;5071635;28;20478;-37
2022/10/23 03:45:10;;;;;;;18.90;11.20;;;;;;;13.01;58.63;100044.97;5071040;28;20028;-36
2022/10/23 03:47:39;;;;;;;21.38;11.02;;;;;;;12.78;59.44;100039.31;5071216;28;20016;-36
2022/10/23 03:50:09;;;;;;;18.38;10.02;;;;;;;12.71;59.53;100036.63;5071119;28;20029;-36
2022/10/23 03:52:34;;;;;;;17.67;8.77;;;;;;;12.88;58.55;100042.34;5070384;28;20028;-36
2022/10/23 03:55:00;;;;;;;14.82;8.38;;;;;;;13.53;56.43;100057.47;5071305;28;20027;-36
2022/10/23 03:57:25;;;;;;;13.27;8.57;;;;;;;13.30;56.86;100054.28;5070818;28;20023;-36
2022/10/23 03:59:51;;;;;;;17.38;9.88;;;;;;;13.26;57.65;100065.59;5071490;28;20020;-36
2022/10/23 04:02:17;;;;;;;15.05;10.50;;;;;;;12.99;58.52;100054.22;5071138;28;20093;-36
2022/10/23 04:04:43;;;;;;;20.38;11.23;;;;;;;13.55;56.88;100053.53;5071191;28;20085;-37
2022/10/23 04:07:08;;;;;;;15.98;10.90;;;;;;;13.49;57.20;100049.06;5071157;28;20024;-37
2022/10/23 04:09:34;;;;;;;17.00;11.48;;;;;;;13.27;58.00;100048.56;5071163;28;20052;-37
2022/10/23 04:11:59;;;;;;;15.27;10.43;;;;;;;12.96;58.84;100058.13;5071320;28;20035;-37
2022/10/23 04:14:25;;;;;;;17.38;10.05;;;;;;;13.18;58.25;100061.34;5071211;28;20118;-37
2022/10/23 04:16:51;;;;;;;20.20;11.07;;;;;;;13.35;57.53;100067.03;5071037;28;20021;-37
2022/10/23 04:19:16;;;;;;;16.30;11.10;;;;;;;13.22;58.06;100080.44;5069710;28;20020;-37
2022/10/23 04:21:42;;;;;;;17.83;11.82;;;;;;;12.88;59.64;100077.88;5070864;28;20055;-36
2022/10/23 04:24:08;;;;;;;20.45;12.35;;;;;;;12.63;60.84;100068.91;5069723;28;20453;-36
2022/10/23 04:26:33;;;;;;;21.17;13.07;;;;;;;13.43;57.93;100058.75;5071024;28;20107;-36
2022/10/23 04:28:59;;;;;;;20.20;12.77;;;;;;;12.91;59.08;100064.09;5070890;28;20028;-36
2022/10/23 04:31:24;;;;;;;23.70;13.63;;;;;;;12.81;59.75;100065.56;5071077;28;20024;-35
2022/10/23 04:33:50;;;;;;;19.75;12.93;;;;;;;12.44;60.15;100060.72;5071213;28;20459;-36
2022/10/23 04:36:16;;;;;;;24.40;13.02;;;;;;;12.98;58.82;100056.06;5070950;28;20031;-36
2022/10/23 04:38:41;;;;;;;16.90;10.57;;;;;;;13.05;58.20;100064.88;5070487;28;20423;-36
2022/10/23 04:41:07;;;;;;;20.75;10.00;;;;;;;12.76;58.48;100052.06;5070986;28;20142;-36
2022/10/23 04:43:32;;;;;;;16.35;8.85;;;;;;;13.07;57.79;100057.47;5070835;28;20119;-36
2022/10/23 04:45:58;;;;;;;15.15;8.35;;;;;;;13.35;56.90;100059.03;5071060;28;20020;-36
2022/10/23 04:48:23;;;;;;;14.52;8.00;;;;;;;13.73;55.45;100060.00;5070626;28;20086;-36
2022/10/23 04:51:00;;;;;;;15.57;7.20;;;;;;;13.81;54.73;100067.78;5071024;28;20484;-36
2022/10/23 04:53:27;;;;;;;15.73;6.30;;;;;;;14.04;53.93;100068.00;5070605;28;20024;-36
2022/10/23 04:55:55;;;;;;;12.38;6.97;;;;;;;14.20;53.37;100060.47;5070792;28;20025;-36
2022/10/23 04:58:21;;;;;;;13.23;6.28;;;;;;;14.74;51.55;100069.66;5069066;28;20024;-36
2022/10/23 05:00:47;;;;;;;14.70;6.47;;;;;;;14.86;50.98;100062.50;5070687;28;20420;-37
2022/10/23 05:03:13;;;;;;;14.45;6.85;;;;;;;14.73;51.88;100073.38;5072726;28;20021;-37
2022/10/23 05:05:39;;;;;;;14.73;8.23;;;;;;;14.62;52.73;100074.09;5074584;28;20120;-37
2022/10/23 05:08:05;;;;;;;14.60;7.95;;;;;;;14.90;51.73;100062.06;5074707;28;20016;-37
2022/10/23 05:10:31;;;;;;;14.15;7.22;;;;;;;14.63;51.76;100076.56;5074781;28;20461;-37
2022/10/23 05:12:56;;;;;;;12.15;6.13;;;;;;;14.78;51.48;100068.16;5074720;28;20032;-37
2022/10/23 05:15:22;;;;;;;14.90;5.43;;;;;;;14.95;50.98;100068.41;5074619;28;20445;-37
2022/10/23 05:17:51;;;;;;;14.65;5.00;;;;;;;15.71;49.33;100070.72;5074590;28;20372;-37
2022/10/23 05:20:20;;;;;;;9.43;4.60;;;;;;;15.97;47.77;100081.06;5074552;28;20470;-38
2022/10/23 05:22:49;;;;;;;12.25;4.60;;;;;;;16.26;46.73;100075.00;5074009;28;20051;-38
2022/10/23 05:25:14;;;;;;;10.77;5.47;;;;;;;16.91;45.78;100079.44;5074438;28;20024;-37
2022/10/23 05:27:40;;;;;;;13.25;4.90;;;;;;;17.31;44.66;100074.06;5074460;28;20085;-37
2022/10/23 05:30:06;;;;;;;13.15;5.07;;;;;;;17.21;44.35;100079.25;5074306;28;20496;-36
2022/10/23 05:32:33;;;;;;;9.80;4.93;;;;;;;17.55;43.33;100079.34;5074451;28;20025;-37
2022/10/23 05:35:00;;;;;;;21.08;9.98;;;;;;;17.93;42.56;100089.47;5073785;28;20028;-37
2022/10/23 05:37:26;;;;;;;17.13;7.50;;;;;;;18.17;41.88;100095.50;5073745;28;20060;-38
2022/10/23 05:39:51;;;;;;;19.33;8.68;;;;;;;18.04;41.92;100090.44;5072793;28;20101;-36
2022/10/23 05:42:17;;;;;;;10.65;4.72;;;;;;;18.35;40.86;100097.16;5072736;28;20054;-37
2022/10/23 05:44:42;;;;;;;11.98;4.43;;;;;;;18.72;40.02;100095.78;5072920;28;20025;-38
2022/10/23 05:47:08;;;;;;;27.25;16.08;;;;;;;18.91;39.64;100104.44;5072468;28;20480;-36
2022/10/23 05:49:33;;;;;;;17.85;6.25;;;;;;;19.10;39.29;100102.25;5072440;28;20055;-37
2022/10/23 05:51:59;;;;;;;8.20;4.80;;;;;;;19.52;38.74;100102.44;5072405;28;20024;-37
2022/10/23 05:54:25;;;;;;;13.25;4.80;;;;;;;19.62;38.73;100126.03;5072581;28;20185;-35
2022/10/23 05:56:50;;;;;;;9.90;4.63;;;;;;;19.52;38.68;100115.94;5072663;28;20056;-36
2022/10/23 05:59:16;;;;;;;10.95;4.55;;;;;;;19.86;38.07;100123.06;5071318;28;20021;-37
2022/10/23 06:01:42;;;;;;;14.30;4.00;;;;;;;20.11;37.40;100125.16;5072899;28;20040;-36
2022/10/23 06:04:08;;;;;;;12.20;4.57;;;;;;;20.44;36.62;100139.47;5072560;28;20024;-38
2022/10/23 06:06:35;;;;;;;10.52;4.03;;;;;;;20.78;36.10;100125.66;5072321;28;20396;-37
2022/10/23 06:09:01;;;;;;;16.77;7.07;;;;;;;21.64;34.98;100138.75;5072487;28;20094;-36
2022/10/23 06:11:27;;;;;;;11.60;4.75;;;;;;;21.80;34.56;100138.78;5072683;28;20025;-36
2022/10/23 06:13:52;;;;;;;14.85;4.50;;;;;;;21.81;34.32;100135.81;5071891;28;20360;-43
2022/10/23 06:16:21;;;;;;;9.93;4.45;;;;;;;22.49;36.34;100137.50;5072299;28;20044;-43
2022/10/23 06:18:47;;;;;;;12.90;4.35;;;;;;;23.10;33.21;100144.69;5072699;28;20373;-43
2022/10/23 06:21:13;;;;;;;15.07;5.00;;;;;;;23.42;32.37;100133.44;5072031;28;20033;-42
2022/10/23 06:23:40;;;;;;;14.20;5.20;;;;;;;23.60;31.25;100144.72;5072263;28;20051;-44
2022/10/23 06:26:07;;;;;;;12.27;5.10;;;;;;;24.01;31.22;100144.50;5072755;28;20060;-43
2022/10/23 06:28:34;;;;;;;9.32;4.53;;;;;;;24.05;30.89;100145.56;5072667;28;20020;-42
2022/10/23 06:31:03;;;;;;;9.38;4.80;;;;;;;24.25;31.03;100144.56;5072357;28;20028;-44
2022/10/23 06:33:28;;;;;;;;;;;;;;;24.04;30.90;100146.66;5072575;28;20029;-42
2022/10/23 06:35:55;;;;;;;11.48;4.18;;;;;;;23.93;31.35;100156.78;5072306;28;19916;-44
2022/10/23 06:38:20;;;;;;;15.30;5.30;;;;;;;23.96;30.75;100167.09;5069088;28;20225;-43
2022/10/23 06:40:53;;;;;;;15.15;4.82;;;;;;;24.50;30.72;100169.91;5071672;28;20081;-43
2022/10/23 06:43:18;;;;;;;16.90;4.75;;;;;;;24.94;29.41;100188.84;5070381;28;20026;-42
2022/10/23 06:45:43;;;;;;;15.07;4.65;;;;;;;24.62;29.93;100186.72;5071728;28;20028;-43
2022/10/23 06:48:09;;;;;;;16.08;4.53;;;;;;;24.93;29.96;100183.69;5071684;28;20376;-42
2022/10/23 06:50:37;;;;;;;10.18;4.70;;;;;;;24.84;30.01;100193.59;5071577;28;20032;-43
2022/10/23 06:53:04;;;;;;;11.15;4.72;;;;;;;25.09;29.68;100192.50;5070326;28;20032;-43
2022/10/23 06:55:30;;;;;;;13.63;4.45;;;;;;;25.25;29.24;100191.25;5071094;28;20520;-43
2022/10/23 06:57:56;;;;;;;13.13;4.70;;;;;;;25.09;29.72;100195.22;5071089;28;20190;-43
2022/10/23 07:00:21;;;;;;;9.18;4.80;;;;;;;25.18;29.82;100207.09;5071282;28;20107;-44
2022/10/23 07:02:48;;;;;;;11.38;4.28;;;;;;;25.43;29.15;100207.94;5071157;28;20024;-42
2022/10/23 07:05:14;;;;;;;16.02;4.97;;;;;;;25.91;29.03;100208.69;5071136;28;20549;-36
2022/10/23 07:07:39;;;;;;;14.00;4.90;;;;;;;26.27;28.22;100210.88;5071404;28;20032;-37
2022/10/23 07:10:05;;;;;;;13.80;4.40;;;;;;;26.73;27.80;100217.47;5071339;28;20024;-37
2022/10/23 07:12:30;;;;;;;12.07;4.90;;;;;;;26.79;27.50;100216.31;5071620;28;20384;-37
2022/10/23 07:14:56;;;;;;;11.20;4.57;;;;;;;26.96;27.60;100220.34;5071053;28;20479;-37
2022/10/23 07:17:21;;;;;;;15.15;4.65;;;;;;;26.57;28.00;100216.13;5070081;28;20566;-38
2022/10/23 07:19:47;;;;;;;10.10;4.63;;;;;;;26.84;27.96;100218.91;5069902;28;20377;-38
2022/10/23 07:22:12;;;;;;;12.73;5.00;;;;;;;27.46;27.24;100215.84;5071270;28;20045;-36
2022/10/23 07:24:39;;;;;;;10.95;4.53;;;;;;;27.51;27.12;100220.38;5071409;28;20502;-36
2022/10/23 07:27:05;;;;;;;12.55;4.78;;;;;;;27.77;27.07;100223.38;5071178;28;20436;-36
2022/10/23 07:29:31;;;;;;;9.05;4.70;;;;;;;28.01;27.03;100230.56;5071426;28;20025;-37
2022/10/23 07:31:57;;;;;;;9.40;4.93;;;;;;;28.17;27.23;100215.41;5071084;28;20023;-36
2022/10/23 07:34:23;;;;;;;15.30;4.88;;;;;;;28.35;26.66;100219.09;5070271;28;20476;-36
2022/10/23 07:36:49;;;;;;;9.02;4.95;;;;;;;28.68;26.59;100218.03;5070579;28;20044;-36
2022/10/23 07:39:14;;;;;;;12.63;4.75;;;;;;;28.07;27.27;100210.97;5071467;28;20397;-38
2022/10/23 07:41:40;;;;;;;10.20;4.80;;;;;;;28.09;27.45;100218.88;5071373;28;20134;-37
2022/10/23 07:44:05;;;;;;;8.20;4.40;;;;;;;27.16;28.49;100210.97;5071350;28;20052;-37
2022/10/23 07:46:31;;;;;;;10.38;4.50;;;;;;;27.75;28.22;100220.16;5071384;28;20050;-37
2022/10/23 07:48:56;;;;;;;16.73;5.13;;;;;;;28.10;27.70;100220.47;5070892;28;20040;-43
2022/10/23 07:51:22;;;;;;;17.90;5.20;;;;;;;27.92;28.01;100227.75;5067951;28;20491;-46
2022/10/23 07:53:48;;;;;;;17.08;4.68;;;;;;;28.37;27.67;100226.97;5070744;28;20082;-43
2022/10/23 07:56:25;;;;;;;11.23;5.25;;;;;;;28.15;27.92;100225.84;5071003;28;20024;-45
2022/10/23 07:58:52;;;;;;;11.25;4.70;;;;;;;27.95;28.08;100218.09;5070927;28;20020;-43
2022/10/23 08:01:41;;;;;;;16.48;4.72;;;;;;;28.22;27.67;100212.56;5070631;28;20032;-42
2022/10/23 08:04:08;;;;;;;26.83;5.53;;;;;;;27.56;28.61;100212.09;5070391;28;20048;-43
2022/10/23 08:06:37;;;;;;;22.48;4.57;;;;;;;27.19;29.02;100208.44;5070511;28;20131;-43
2022/10/23 08:09:03;;;;;;;12.98;4.50;;;;;;;26.59;30.11;100201.09;5070923;28;20116;-43
2022/10/23 08:11:34;;;;;;;10.90;4.00;;;;;;;26.94;29.70;100198.00;5069940;28;20103;-43
2022/10/23 08:14:03;;;;;;;18.80;4.57;;;;;;;26.96;29.98;100199.34;5070554;28;20373;-36
2022/10/23 08:16:29;;;;;;;10.27;4.50;;;;;;;26.70;30.37;100201.72;5070453;28;20024;-36
2022/10/23 08:18:55;;;;;;;186.15;11.40;;;;;;;26.46;31.52;100208.09;5070486;28;20020;-36
2022/10/23 08:21:20;;;;;;;65.15;6.43;;;;;;;26.57;31.94;100197.00;5069944;28;20435;-37
2022/10/23 08:23:46;;;;;;;27.30;4.40;;;;;;;26.23;32.60;100203.56;5069845;28;20044;-37
2022/10/23 08:26:11;;;;;;;46.83;5.65;;;;;;;26.19;33.27;100206.06;5070501;28;20068;-37
2022/10/23 08:28:37;;;;;;;43.88;4.78;;;;;;;25.95;33.62;100222.53;5070130;28;20400;-37
2022/10/23 08:31:11;;;;;;;22.60;4.55;;;;;;;26.03;33.77;100210.97;5070436;28;20051;-37
2022/10/23 08:33:37;;;;;;;17.52;3.75;;;;;;;26.15;33.53;100218.69;5070404;28;20081;-37
2022/10/23 08:36:03;;;;;;;12.55;3.65;;;;;;;26.62;32.90;100194.25;5070334;28;20036;-37
2022/10/23 08:38:29;;;;;;;14.18;3.80;;;;;;;26.84;32.37;100212.66;5069710;28;20021;-37
2022/10/23 08:40:54;;;;;;;32.38;4.40;;;;;;;26.09;33.69;100212.50;5070465;28;20557;-37
2022/10/23 08:43:37;;;;;;;41.38;4.10;;;;;;;25.91;33.86;100216.00;5069627;28;20442;-36
2022/10/23 08:46:07;;;;;;;29.25;4.30;;;;;;;25.84;34.13;100199.22;5069159;28;20098;-37
2022/10/23 08:48:42;;;;;;;19.00;3.60;;;;;;;26.07;34.15;100213.91;5069313;28;20025;-36
2022/10/23 08:51:17;;;;;;;23.52;3.53;;;;;;;26.10;34.07;100216.03;5069197;28;20086;-36
2022/10/23 08:53:58;;;;;;;41.65;8.55;;;;;;;26.02;34.21;100213.97;5069559;28;20032;-37
2022/10/23 08:56:32;;;;;;;27.15;3.55;;;;;;;26.04;34.28;100218.03;5069356;28;20039;-37
2022/10/23 08:59:04;;;;;;;14.23;3.22;;;;;;;26.05;34.66;100214.19;5069994;28;20507;-37
2022/10/23 09:01:39;;;;;;;9.50;3.00;;;;;;;26.13;34.73;100208.06;5070259;28;20028;-36
2022/10/23 09:04:05;;;;;;;13.00;2.90;;;;;;;26.46;33.87;100201.81;5070477;28;20082;-37
2022/10/23 09:06:44;;;;;;;7.80;3.03;;;;;;;26.84;33.56;100204.47;5070205;28;20020;-36
2022/10/23 09:09:43;;;;;;;14.93;3.55;;;;;;;27.05;32.92;100193.97;5069916;28;20021;-36
2022/10/23 09:12:11;;;;;;;20.17;3.20;;;;;;;26.86;33.05;100200.31;5069933;28;20078;-36
2022/10/23 09:14:40;;;;;;;20.02;2.97;;;;;;;26.70;33.77;100202.53;5070003;28;20048;-37
2022/10/23 09:17:38;;;;;;;14.50;3.20;;;;;;;26.63;33.78;100207.56;5070341;28;20071;-37
2022/10/23 09:20:20;;;;;;;11.55;2.67;;;;;;;26.60;34.36;100199.16;5069293;28;20028;-36
2022/10/23 09:22:49;;;;;;;12.23;2.60;;;;;;;26.56;33.78;100215.31;5068348;28;20132;-37
2022/10/23 09:25:26;;;;;;;10.23;2.30;;;;;;;26.39;33.47;100218.59;5069896;28;20099;-37
2022/10/23 09:27:55;;;;;;;9.55;2.40;;;;;;;26.31;34.10;100208.34;5069819;28;20492;-37
2022/10/23 09:30:37;;;;;;;9.15;2.28;;;;;;;26.66;33.14;100206.97;5069447;28;20100;-37
2022/10/23 09:33:16;;;;;;;16.58;2.28;;;;;;;26.40;32.79;100208.47;5069864;28;20029;-36
2022/10/23 09:36:03;;;;;;;11.85;2.30;;;;;;;26.82;32.43;100207.50;5070050;28;20124;-37
2022/10/23 09:38:37;;;;;;;14.13;2.40;;;;;;;26.65;32.95;100204.53;5069925;28;20048;-36
2022/10/23 09:41:12;;;;;;;10.18;1.90;;;;;;;26.88;32.76;100198.13;5069368;28;20056;-37
2022/10/23 09:43:38;;;;;;;10.55;2.78;;;;;;;26.83;32.86;100195.47;5070063;28;20078;-36
2022/10/23 09:46:05;;;;;;;7.05;2.40;;;;;;;26.75;32.84;100190.72;5069911;28;20029;-37
2022/10/23 09:48:32;;;;;;;7.63;2.08;;;;;;;26.94;32.63;100195.28;5069895;28;20025;-37
2022/10/23 09:50:59;;;;;;;11.52;2.50;;;;;;;26.94;32.34;100187.91;5073270;28;20659;-36
2022/10/23 09:53:31;;;;;;;25.63;2.80;;;;;;;26.91;31.57;100200.22;5073610;28;20032;-36
2022/10/23 09:56:00;;;;;;;9.40;2.38;;;;;;;26.95;31.48;100183.25;5073390;28;20063;-35
2022/10/23 09:58:51;;;;;;;5.80;2.20;;;;;;;26.73;31.46;100184.72;5073185;28;20454;-36
2022/10/23 10:01:27;;;;;;;;;;;;;;;26.85;31.80;100190.53;5073272;28;20020;-37
2022/10/23 10:03:52;;;;;;;5.57;2.20;;;;;;;27.40;30.98;100183.50;5073254;28;19981;-36
2022/10/23 10:06:25;;;;;;;4.30;2.10;;;;;;;27.13;30.77;100168.72;5073567;28;20024;-37
2022/10/23 10:08:55;;;;;;;4.72;2.03;;;;;;;27.62;30.37;100172.59;5072878;28;20028;-43
2022/10/23 10:11:48;;;;;;;10.18;2.38;;;;;;;27.03;30.75;100166.16;5072372;28;20031;-43
2022/10/23 10:14:44;;;;;;;7.25;2.47;;;;;;;27.54;29.91;100165.13;5070170;28;20013;-44
2022/10/23 10:17:56;;;;;;;6.10;2.38;;;;;;;27.36;29.69;100161.44;5072197;28;20461;-37
2022/10/23 10:20:21;;;;;;;8.73;2.40;;;;;;;27.15;30.20;100157.44;5068292;28;20114;-42
2022/10/23 10:22:58;;;;;;;7.18;2.28;;;;;;;27.11;30.20;100157.25;5071655;28;20068;-44
2022/10/23 10:25:43;;;;;;;4.93;2.72;;;;;;;27.07;30.22;100157.06;5072287;28;20446;-44
2022/10/23 10:28:18;;;;;;;4.60;2.30;;;;;;;27.44;29.65;100152.50;5071911;28;20021;-45
2022/10/23 10:30:46;;;;;;;11.02;2.50;;;;;;;27.76;29.31;100141.69;5072341;28;20075;-45
2022/10/23 10:33:28;;;;;;;8.85;2.40;;;;;;;28.45;28.43;100133.97;5069199;28;20495;-45
2022/10/23 10:36:11;;;;;;;8.20;2.42;;;;;;;28.19;28.57;100130.28;5069577;28;20024;-44
2022/10/23 10:38:56;;;;;;;2.47;2.25;;;;;;;28.17;29.15;100133.34;5069784;28;20032;-44
2022/10/23 10:41:40;;;;;;;6.03;2.22;;;;;;;27.77;29.95;100135.09;5070156;28;20024;-44
2022/10/23 10:44:21;;;;;;;4.70;2.20;;;;;;;27.91;29.21;100132.34;5070520;28;20024;-44
2022/10/23 10:46:52;;;;;;;5.25;2.03;;;;;;;27.95;28.91;100133.34;5070901;28;20029;-43
2022/10/23 10:49:27;;;;;;;3.17;2.15;;;;;;;27.60;29.66;100120.16;5071571;28;20016;-43
2022/10/23 10:52:29;;;;;;;2.88;2.13;;;;;;;27.91;28.80;100124.94;5068948;28;20044;-45
2022/10/23 10:54:55;;;;;;;8.45;2.20;;;;;;;28.00;28.11;100116.81;5068963;28;20021;-43
2022/10/23 10:57:41;;;;;;;5.47;2.40;;;;;;;28.31;27.66;100114.13;5071797;28;20023;-43
2022/10/23 11:00:19;;;;;;;4.47;2.10;;;;;;;28.25;27.77;100123.56;5069719;28;20094;-44
2022/10/23 11:03:13;;;;;;;7.60;2.20;;;;;;;27.84;28.09;100113.63;5071704;28;20028;-44
2022/10/23 11:05:45;;;;;;;5.00;2.30;;;;;;;27.96;27.86;100121.28;5066600;28;20078;-45
2022/10/23 11:08:20;;;;;;;3.80;1.80;;;;;;;27.82;27.63;100119.38;5071513;28;20377;-44
2022/10/23 11:10:49;;;;;;;4.93;1.83;;;;;;;28.11;26.82;100114.63;5071441;28;20082;-43
2022/10/23 11:13:31;;;;;;;2.75;2.00;;;;;;;28.40;26.43;100116.88;5069602;28;20040;-42
2022/10/23 11:16:12;;;;;;;5.18;2.13;;;;;;;28.43;26.59;100106.13;5069277;28;20021;-44
2022/10/23 11:18:42;;;;;;;4.35;2.00;;;;;;;27.95;27.85;100101.34;5069361;28;20021;-43
2022/10/23 11:21:16;;;;;;;5.57;2.10;;;;;;;27.83;27.72;100101.84;5070949;28;20045;-44
2022/10/23 11:23:58;;;;;;;5.35;2.30;;;;;;;28.08;27.83;100107.84;5071172;28;20052;-46
2022/10/23 11:26:54;;;;;;;7.10;2.00;;;;;;;27.77;27.21;100097.63;5069489;28;20047;-44
2022/10/23 11:29:32;;;;;;;5.38;2.00;;;;;;;27.78;27.38;100092.97;5069621;28;20024;-37
2022/10/23 11:32:31;;;;;;;5.78;2.10;;;;;;;27.87;27.12;100088.38;5071244;28;20028;-37